Terminal Aerodrome Forecast
Issued by NWS Wichita, KS

Home | Current Version | Previous Version | Text Only | Print | Product List | Glossary Off
Versions: 1 2 3 4 5 6 7 8 9 10 11 12 13 14 15 16 17 18 19 20 21

000
FTUS43 KICT 220359 AAD
TAFICT
TAF AMD
KICT 220359Z 2204/2224 01014G20KT P6SM VCSH OVC035
      TEMPO 2204/2208 OVC025
     FM221400 01013G22KT P6SM BKN035
     FM222000 01012KT P6SM SCT030=

USA.gov is the U.S. government's official web portal to all federal, state and local government web resources and services.